createdAt,value
2023-01-05T00:00:09.395Z,81.57
2023-01-05T00:05:10.926Z,81.38
2023-01-05T00:10:32.312Z,81.96
2023-01-05T00:15:52.156Z,82.17
2023-01-05T00:21:12.809Z,81.38
2023-01-05T00:26:14.232Z,79.95
2023-01-05T00:31:15.928Z,79.92
2023-01-05T00:36:17.394Z,79.16
2023-01-05T00:41:18.812Z,79.21
2023-01-05T00:46:20.307Z,79.32
2023-01-05T00:51:21.751Z,79.23
2023-01-05T00:56:23.152Z,78.53
2023-01-05T01:01:24.856Z,78.01
2023-01-05T01:06:27.857Z,78.34
2023-01-05T01:11:29.266Z,78.69
2023-01-05T01:16:31.058Z,78.73
2023-01-05T01:21:32.678Z,77.90
2023-01-05T01:26:34.327Z,77.77
2023-01-05T01:31:35.798Z,77.30
2023-01-05T01:36:37.241Z,77.16
2023-01-05T01:41:38.888Z,76.43
2023-01-05T01:46:40.315Z,74.82
2023-01-05T01:51:47.746Z,75.80
2023-01-05T01:56:55.228Z,76.54
2023-01-05T02:02:00.704Z,75.64
2023-01-05T02:07:03.549Z,75.64
2023-01-05T02:12:48.922Z,76.59
2023-01-05T02:18:09.618Z,77.42
2023-01-05T02:23:32.189Z,78.06
2023-01-05T02:28:53.117Z,78.22
2023-01-05T02:34:09.676Z,77.84
2023-01-05T02:39:21.173Z,77.43
2023-01-05T02:44:23.027Z,77.30
2023-01-05T02:49:24.841Z,77.14
2023-01-05T02:54:38.936Z,77.07
2023-01-05T02:59:51.772Z,76.73
2023-01-05T03:05:10.128Z,77.14
2023-01-05T03:10:32.769Z,76.82
2023-01-05T03:15:37.676Z,76.36
2023-01-05T03:20:44.203Z,76.64
2023-01-05T03:26:06.625Z,76.01
2023-01-05T03:31:36.967Z,76.29
2023-01-05T03:36:47.665Z,75.61
2023-01-05T03:41:49.088Z,76.43
2023-01-05T03:46:51.795Z,75.43
2023-01-05T03:51:53.262Z,75.65
2023-01-05T03:56:54.679Z,76.98
2023-01-05T04:01:56.257Z,77.60
2023-01-05T04:06:57.745Z,77.21
2023-01-05T04:12:00.532Z,77.92
2023-01-05T04:17:01.964Z,79.37
2023-01-05T04:22:03.398Z,80.64
2023-01-05T04:27:04.837Z,81.95
2023-01-05T04:32:06.350Z,83.87
2023-01-05T04:37:07.792Z,83.69
2023-01-05T04:42:09.289Z,84.41
2023-01-05T04:47:10.719Z,85.45
2023-01-05T04:52:12.205Z,87.25
2023-01-05T04:57:13.638Z,88.39
2023-01-05T05:02:15.366Z,86.44
2023-01-05T05:07:16.979Z,87.28
2023-01-05T05:12:21.728Z,87.64
2023-01-05T05:17:23.213Z,87.13
2023-01-05T05:22:25.043Z,85.88
2023-01-05T05:27:26.602Z,87.82
2023-01-05T05:32:28.019Z,89.92
2023-01-05T05:37:29.447Z,87.11
2023-01-05T05:42:30.895Z,86.06
2023-01-05T05:47:32.414Z,85.84
2023-01-05T05:52:33.838Z,86.49
2023-01-05T05:57:35.293Z,87.53
2023-01-05T06:02:36.874Z,86.86
2023-01-05T06:07:38.467Z,86.90
2023-01-05T06:12:39.899Z,86.45
2023-01-05T06:17:41.366Z,88.00
2023-01-05T06:22:43.928Z,87.81
2023-01-05T06:27:45.372Z,87.14
2023-01-05T06:32:46.765Z,85.30
2023-01-05T06:37:48.203Z,86.83
2023-01-05T06:42:49.740Z,84.73
2023-01-05T06:47:51.253Z,86.00
2023-01-05T06:52:52.659Z,86.69
2023-01-05T06:58:00.239Z,87.09
2023-01-05T07:03:02.385Z,86.47
2023-01-05T07:08:04.134Z,86.15
2023-01-05T07:13:05.624Z,84.97
2023-01-05T07:18:07.203Z,85.39
2023-01-05T07:23:08.641Z,85.70
2023-01-05T07:28:10.045Z,85.33
2023-01-05T07:33:11.457Z,86.36
2023-01-05T07:38:13.185Z,84.81
2023-01-05T07:43:14.595Z,83.97
2023-01-05T07:48:21.844Z,85.21
2023-01-05T07:53:24.873Z,85.94
2023-01-05T07:58:27.931Z,86.13
2023-01-05T08:03:29.343Z,85.29
2023-01-05T08:08:30.823Z,84.09
2023-01-05T08:13:51.471Z,83.94
2023-01-05T08:18:53.873Z,82.93
2023-01-05T08:23:55.413Z,82.31
2023-01-05T08:28:56.859Z,82.49
2023-01-05T08:34:00.164Z,81.40
2023-01-05T08:39:02.329Z,80.70
2023-01-05T08:44:06.752Z,81.31
2023-01-05T08:49:09.705Z,80.10
2023-01-05T08:54:11.229Z,80.45
2023-01-05T08:59:14.246Z,79.57
2023-01-05T09:04:15.945Z,78.41
2023-01-05T09:09:17.389Z,78.08
2023-01-05T09:14:19.161Z,77.19
2023-01-05T09:19:20.587Z,76.61
2023-01-05T09:24:22.193Z,76.43
2023-01-05T09:29:23.663Z,77.24
2023-01-05T09:34:25.161Z,75.16
2023-01-05T09:39:26.722Z,76.07
2023-01-05T09:44:36.938Z,76.84
2023-01-05T09:49:40.700Z,78.45
2023-01-05T09:54:42.200Z,77.95
2023-01-05T09:59:46.313Z,78.41
2023-01-05T10:04:48.937Z,78.62
2023-01-05T10:09:53.478Z,77.43
2023-01-05T10:15:17.536Z,77.63
2023-01-05T10:20:24.288Z,76.87
2023-01-05T10:25:37.447Z,76.96
2023-01-05T10:30:54.102Z,75.52
2023-01-05T10:36:05.115Z,74.90
2023-01-05T10:41:44.899Z,73.81
2023-01-05T10:46:52.405Z,72.86
2023-01-05T10:51:58.094Z,71.34
2023-01-05T10:57:34.204Z,81.36
2023-01-05T11:02:40.154Z,84.05
2023-01-05T11:07:53.899Z,85.56
2023-01-05T11:13:02.301Z,86.50
2023-01-05T11:18:03.819Z,86.15
2023-01-05T11:23:05.281Z,87.23
2023-01-05T11:28:16.987Z,86.46
2023-01-05T11:33:25.830Z,89.51
2023-01-05T11:38:29.636Z,90.68
2023-01-05T11:43:33.354Z,91.17
2023-01-05T11:48:36.155Z,92.16
2023-01-05T11:53:39.953Z,92.53
2023-01-05T11:58:45.928Z,93.55
2023-01-05T12:04:07.692Z,94.23
2023-01-05T12:09:23.385Z,91.48
2023-01-05T12:14:42.729Z,89.85
2023-01-05T12:19:54.335Z,92.30
2023-01-05T12:25:15.046Z,92.27
2023-01-05T12:32:55.125Z,93.42
2023-01-05T12:36:01.206Z,91.17
2023-01-05T12:41:11.414Z,89.40
2023-01-05T12:46:18.887Z,89.87
2023-01-05T12:51:46.837Z,89.05
2023-01-05T12:56:54.044Z,89.72
2023-01-05T13:02:07.767Z,88.79
2023-01-05T13:07:23.214Z,86.96
2023-01-05T13:12:24.967Z,87.55
2023-01-05T13:17:32.150Z,87.63
2023-01-05T13:22:38.958Z,81.81
2023-01-05T13:27:40.370Z,78.36
2023-01-05T13:32:54.698Z,77.62
2023-01-05T13:38:17.528Z,75.47
2023-01-05T13:43:37.835Z,75.64
2023-01-05T13:49:23.565Z,75.87
2023-01-05T13:55:03.167Z,75.00
2023-01-05T14:00:12.418Z,75.89
2023-01-05T14:05:24.828Z,73.68
2023-01-05T14:10:30.073Z,74.21
2023-01-05T14:15:36.443Z,75.26
2023-01-05T14:20:40.980Z,77.26
2023-01-05T14:26:06.495Z,78.45
2023-01-05T14:31:07.884Z,79.65
2023-01-05T14:36:25.205Z,78.76
2023-01-05T14:41:28.912Z,79.76
2023-01-05T14:46:46.520Z,75.74
2023-01-05T14:51:56.426Z,72.02
2023-01-05T14:57:43.365Z,69.02
2023-01-05T15:03:12.728Z,64.62
2023-01-05T15:08:32.583Z,63.99
2023-01-05T15:14:24.932Z,61.91
2023-01-05T15:19:44.844Z,62.55
2023-01-05T15:25:09.090Z,62.51
2023-01-05T15:30:22.254Z,63.54
2023-01-05T15:35:37.938Z,64.67
2023-01-05T15:40:39.442Z,63.87
2023-01-05T15:45:43.288Z,64.04
2023-01-05T15:50:47.397Z,65.32
2023-01-05T15:55:51.947Z,65.43
2023-01-05T16:01:06.295Z,64.83
2023-01-05T16:06:07.934Z,64.30
2023-01-05T16:11:11.486Z,64.78
2023-01-05T16:16:50.479Z,65.78
2023-01-05T16:21:49.358Z,65.24
2023-01-05T16:26:50.872Z,65.80
2023-01-05T16:31:56.489Z,64.34
2023-01-05T16:37:17.335Z,66.12
2023-01-05T16:42:40.267Z,66.43
2023-01-05T16:47:42.093Z,66.15
2023-01-05T16:52:53.104Z,68.05
2023-01-05T16:57:54.883Z,67.68
2023-01-05T17:02:58.235Z,68.07
2023-01-05T17:08:06.424Z,67.57
2023-01-05T17:13:14.466Z,66.74
2023-01-05T17:23:28.145Z,67.35
2023-01-05T17:28:29.587Z,66.25
2023-01-05T17:33:31.032Z,67.16
2023-01-05T17:38:32.560Z,67.67
2023-01-05T17:43:33.984Z,65.49
2023-01-05T17:48:35.443Z,66.66
2023-01-05T17:53:36.867Z,65.53
2023-01-05T17:58:39.070Z,65.61
2023-01-05T18:03:40.525Z,65.57
2023-01-05T18:13:44.316Z,66.67
2023-01-05T18:18:45.763Z,66.69
2023-01-05T18:23:47.273Z,66.04
2023-01-05T18:28:48.724Z,66.38
2023-01-05T18:33:50.185Z,68.01
2023-01-05T18:38:51.640Z,66.89
2023-01-05T18:43:53.230Z,66.74
2023-01-05T18:48:54.703Z,68.50
2023-01-05T18:53:56.129Z,68.91
2023-01-05T18:58:57.592Z,69.42
2023-01-05T19:03:58.993Z,68.48
2023-01-05T19:09:04.069Z,67.99
2023-01-05T19:14:06.262Z,68.30
2023-01-05T19:19:11.393Z,67.83
2023-01-05T19:24:18.243Z,67.37
2023-01-05T19:29:20.640Z,67.24
2023-01-05T19:34:22.168Z,67.06
2023-01-05T19:39:23.597Z,66.90
2023-01-05T19:44:25.018Z,67.22
2023-01-05T19:49:27.799Z,66.77
2023-01-05T19:54:29.320Z,66.93
2023-01-05T19:59:33.723Z,67.16
2023-01-05T20:04:35.391Z,67.08
2023-01-05T20:09:37.281Z,66.56
2023-01-05T20:14:38.730Z,65.69
2023-01-05T20:19:40.940Z,65.94
2023-01-05T20:24:42.989Z,65.19
2023-01-05T20:29:44.483Z,65.72
2023-01-05T20:34:51.907Z,65.50
2023-01-05T20:39:58.998Z,65.76
2023-01-05T20:45:02.905Z,66.21
2023-01-05T20:50:06.302Z,67.48
2023-01-05T20:55:11.388Z,68.13
2023-01-05T21:00:15.572Z,68.64
2023-01-05T21:05:17.604Z,67.78
2023-01-05T21:10:19.751Z,67.82
2023-01-05T21:15:21.222Z,68.75
2023-01-05T21:20:22.673Z,69.33
2023-01-05T21:25:24.151Z,70.18
2023-01-05T21:30:25.570Z,69.10
2023-01-05T21:35:27.061Z,70.45
2023-01-05T21:40:28.965Z,67.93
2023-01-05T21:45:30.751Z,69.21
2023-01-05T21:50:50.658Z,68.51
2023-01-05T21:56:10.809Z,65.88
2023-01-05T22:01:12.484Z,67.32
2023-01-05T22:06:13.937Z,66.21
2023-01-05T22:11:15.542Z,65.89
2023-01-05T22:16:17.043Z,66.93
2023-01-05T22:21:18.665Z,65.10
2023-01-05T22:26:20.564Z,65.26
2023-01-05T22:31:25.892Z,66.89
2023-01-05T22:36:29.169Z,64.87
2023-01-05T22:41:31.602Z,64.62
2023-01-05T22:46:34.146Z,64.64
2023-01-05T22:51:37.435Z,63.80
2023-01-05T22:56:39.624Z,64.50
2023-01-05T23:01:43.234Z,64.83
2023-01-05T23:06:44.790Z,65.09
2023-01-05T23:11:46.981Z,64.91
2023-01-05T23:16:48.530Z,65.51
2023-01-05T23:21:50.003Z,65.75
2023-01-05T23:26:51.435Z,65.18
2023-01-05T23:31:52.992Z,65.95
2023-01-05T23:36:54.463Z,65.69
2023-01-05T23:41:55.978Z,66.47
2023-01-05T23:46:57.452Z,65.47
2023-01-05T23:51:58.911Z,66.28
2023-01-05T23:57:00.317Z,67.15
